Time;durP1;ratioP1;P1;durP2;ratioP2;P2;SDS_P1;SDS_P2;PMS_P1;PMS_P2;Temp;Humidity;BMP_temperature;BMP_pressure;BME280_temperature;BME280_humidity;BME280_pressure;Samples;Min_cycle;Max_cycle;Signal;HPM_P1;HPM_P2
2023/08/20 00:00:19;;;;;;;;;;;;;;;22.40;100.00;96004.06;10534159;28;2025;-69
2023/08/20 00:05:23;;;;;;;;;;;;;;;22.32;100.00;95996.72;10540162;28;2156;-69
2023/08/20 00:10:26;;;;;;;;;;;;;;;22.31;100.00;95997.88;10551580;28;2111;-69
2023/08/20 00:15:32;;;;;;;;;;;;;;;22.20;100.00;95997.53;10563765;27;1967;-69
2023/08/20 00:20:36;;;;;;;;;;;;;;;22.09;100.00;95999.16;10559597;27;1950;-68
2023/08/20 00:25:39;;;;;;;;;;;;;;;22.02;100.00;95999.69;10558342;27;2543;-69
2023/08/20 00:30:42;;;;;;;;;;;;;;;22.02;100.00;95999.69;10558703;27;2190;-71
2023/08/20 00:35:45;;;;;;;;;;;;;;;22.01;100.00;96000.84;10540483;27;2096;-68
2023/08/20 00:40:48;;;;;;;;;;;;;;;22.06;100.00;96008.78;10566652;27;5213;-66
2023/08/20 00:45:51;;;;;;;;;;;;;;;22.00;100.00;96007.41;10566048;27;1934;-68
2023/08/20 00:50:54;;;;;;;;;;;;;;;22.02;100.00;96005.16;10551794;27;2324;-68
2023/08/20 00:55:58;;;;;;;;;;;;;;;22.00;100.00;96012.09;10568174;27;1913;-69
2023/08/20 01:01:03;;;;;;;;;;;;;;;22.05;100.00;96015.41;10556068;27;2042;-67
2023/08/20 01:06:08;;;;;;;;;;;;;;;22.11;100.00;96018.75;10558512;27;2253;-69
2023/08/20 01:11:12;;;;;;;;;;;;;;;;;;10561793;27;2035;-69
2023/08/20 01:16:17;;;;;;;;;;;;;;;22.09;100.00;96005.41;10566931;27;1928;-69
2023/08/20 01:21:20;;;;;;;;;;;;;;;22.03;100.00;96006.75;10574298;27;2392;-69
2023/08/20 01:26:33;;;;;;;;;;;;;;;21.89;100.00;96011.75;10564005;27;1985;-68
2023/08/20 01:31:36;;;;;;;;;;;;;;;21.73;100.00;96013.56;10575661;27;1965;-69
2023/08/20 01:36:43;;;;;;;;;;;;;;;21.81;100.00;96020.84;10559287;27;2014;-69
2023/08/20 01:41:47;;;;;;;;;;;;;;;22.01;100.00;96014.53;10555139;27;5165;-68
2023/08/20 01:46:52;;;;;;;;;;;;;;;21.90;100.00;96018.84;10556279;27;2193;-68
2023/08/20 01:51:56;;;;;;;;;;;;;;;21.86;100.00;96029.66;10560057;27;1937;-68
2023/08/20 01:57:02;;;;;;;;;;;;;;;21.61;100.00;96028.00;10555435;27;1948;-73
2023/08/20 02:02:07;;;;;;;;;;;;;;;21.45;100.00;96022.38;10557990;27;2105;-68
2023/08/20 02:07:10;;;;;;;;;;;;;;;21.40;100.00;96022.59;10554686;27;1988;-68
2023/08/20 02:12:14;;;;;;;;;;;;;;;21.29;100.00;96016.72;10552708;27;2066;-69
2023/08/20 02:17:18;;;;;;;;;;;;;;;21.20;100.00;96017.94;10558903;27;2558;-68
2023/08/20 02:22:21;;;;;;;;;;;;;;;21.09;100.00;96022.19;10551344;27;1951;-68
2023/08/20 02:27:25;;;;;;;;;;;;;;;21.00;100.00;96017.63;10542892;27;1985;-68
2023/08/20 02:32:29;;;;;;;;;;;;;;;20.96;100.00;96024.88;10556374;27;2012;-68
2023/08/20 02:37:33;;;;;;;;;;;;;;;21.13;100.00;96028.59;10558519;27;1974;-68
2023/08/20 02:42:40;;;;;;;;;;;;;;;21.22;100.00;96030.13;10554364;27;5156;-73
2023/08/20 02:47:43;;;;;;;;;;;;;;;21.01;100.00;96027.41;10552626;27;2079;-72
2023/08/20 02:52:46;;;;;;;;;;;;;;;20.98;100.00;96025.31;10555369;27;2019;-73
2023/08/20 02:57:50;;;;;;;;;;;;;;;20.91;100.00;96027.00;10556303;27;1986;-71
2023/08/20 03:02:58;;;;;;;;;;;;;;;20.81;100.00;96030.16;10555955;27;1963;-70
2023/08/20 03:08:07;;;;;;;;;;;;;;;20.71;100.00;96031.34;10554849;27;1957;-70
2023/08/20 03:13:14;;;;;;;;;;;;;;;20.65;100.00;96035.38;10556761;27;2594;-69
2023/08/20 03:18:17;;;;;;;;;;;;;;;20.52;100.00;96048.16;10556005;27;1983;-69
2023/08/20 03:23:20;;;;;;;;;;;;;;;20.38;100.00;96056.56;10540115;28;1954;-68
2023/08/20 03:28:24;;;;;;;;;;;;;;;20.30;100.00;96057.41;10537684;27;2032;-68
2023/08/20 03:33:30;;;;;;;;;;;;;;;20.24;100.00;96056.00;10536216;27;2075;-69
2023/08/20 03:38:34;;;;;;;;;;;;;;;20.28;100.00;96059.66;10555414;27;2034;-70
2023/08/20 03:43:37;;;;;;;;;;;;;;;20.25;100.00;96065.78;10570963;27;5215;-68
2023/08/20 03:48:41;;;;;;;;;;;;;;;20.25;100.00;96076.69;10564953;27;2023;-69
2023/08/20 03:53:47;;;;;;;;;;;;;;;20.24;100.00;96067.72;10551735;28;1938;-69
2023/08/20 03:58:51;;;;;;;;;;;;;;;20.16;100.00;96075.91;10552327;28;2118;-69
2023/08/20 04:03:53;;;;;;;;;;;;;;;20.00;100.00;96080.34;10556007;28;2297;-69
2023/08/20 04:08:57;;;;;;;;;;;;;;;19.97;100.00;96077.09;10548473;28;2516;-68
2023/08/20 04:14:02;;;;;;;;;;;;;;;20.03;100.00;96091.38;10556708;28;2045;-67
2023/08/20 04:19:06;;;;;;;;;;;;;;;20.04;100.00;96103.09;10554255;28;2021;-67
2023/08/20 04:24:12;;;;;;;;;;;;;;;20.05;100.00;96107.44;10557246;28;1970;-69
2023/08/20 04:29:16;;;;;;;;;;;;;;;20.08;100.00;96099.41;10553612;28;1956;-68
2023/08/20 04:34:19;;;;;;;;;;;;;;;20.57;100.00;96101.78;10552544;28;2304;-68
2023/08/20 04:39:22;;;;;;;;;;;;;;;20.68;100.00;96092.09;10533934;28;2066;-70
2023/08/20 04:44:26;;;;;;;;;;;;;;;20.76;100.00;96088.50;10554789;28;4978;-69
2023/08/20 04:49:31;;;;;;;;;;;;;;;20.94;100.00;96091.94;10561586;28;1972;-70
2023/08/20 04:54:35;;;;;;;;;;;;;;;20.99;100.00;96100.75;10552761;28;1946;-70
2023/08/20 04:59:39;;;;;;;;;;;;;;;20.77;100.00;96103.75;10556411;27;1962;-68
2023/08/20 05:04:44;;;;;;;;;;;;;;;20.72;100.00;96098.47;10566214;27;1991;-68
2023/08/20 05:09:48;;;;;;;;;;;;;;;20.68;100.00;96100.28;10559053;27;2386;-67
2023/08/20 05:14:51;;;;;;;;;;;;;;;20.77;100.00;96104.56;10541782;27;2207;-70
2023/08/20 05:19:54;;;;;;;;;;;;;;;20.90;100.00;96102.72;10545238;28;1984;-69
2023/08/20 05:24:57;;;;;;;;;;;;;;;21.37;100.00;96099.81;10559392;27;1953;-67
2023/08/20 05:29:59;;;;;;;;;;;;;;;21.83;100.00;96093.28;10558287;27;1942;-67
2023/08/20 05:35:03;;;;;;;;;;;;;;;22.69;100.00;96092.59;10538813;27;1990;-68
2023/08/20 05:40:12;;;;;;;;;;;;;;;23.19;100.00;96094.94;10549586;27;4988;-68
2023/08/20 05:45:15;;;;;;;;;;;;;;;23.41;100.00;96090.88;10563812;27;2065;-67
2023/08/20 05:50:18;;;;;;;;;;;;;;;23.79;100.00;96082.16;10543255;27;2262;-71
2023/08/20 05:55:27;;;;;;;;;;;;;;;24.05;100.00;96081.69;10561619;27;2119;-69
2023/08/20 06:00:31;;;;;;;;;;;;;;;24.22;100.00;96084.06;10555880;27;2488;-68
2023/08/20 06:05:34;;;;;;;;;;;;;;;24.40;100.00;96075.53;10538350;27;2147;-68
2023/08/20 06:10:38;;;;;;;;;;;;;;;24.68;100.00;96086.38;10552219;27;2300;-68
2023/08/20 06:15:41;;;;;;;;;;;;;;;25.01;100.00;96084.03;10549076;27;2122;-68
2023/08/20 06:20:44;;;;;;;;;;;;;;;24.92;100.00;96091.66;10558618;27;2040;-68
2023/08/20 06:25:47;;;;;;;;;;;;;;;25.22;100.00;96089.22;10571570;27;2039;-68
2023/08/20 06:30:50;;;;;;;;;;;;;;;25.37;100.00;96092.28;10560444;27;2228;-67
2023/08/20 06:35:54;;;;;;;;;;;;;;;25.57;100.00;96102.13;10556155;27;1990;-68
2023/08/20 06:40:57;;;;;;;;;;;;;;;25.76;100.00;96102.16;10541501;27;5139;-69
2023/08/20 06:46:01;;;;;;;;;;;;;;;25.64;100.00;96105.03;10548866;27;2003;-68
2023/08/20 06:51:04;;;;;;;;;;;;;;;25.85;100.00;96110.19;10543949;27;1950;-70
2023/08/20 06:56:14;;;;;;;;;;;;;;;26.16;100.00;96109.22;10555784;27;1958;-70
2023/08/20 07:01:17;;;;;;;;;;;;;;;26.11;100.00;96098.47;10541354;27;1968;-69
2023/08/20 07:06:23;;;;;;;;;;;;;;;26.56;100.00;96106.00;10559235;27;2013;-70
2023/08/20 07:11:30;;;;;;;;;;;;;;;26.86;100.00;96103.31;10559913;27;1962;-70
2023/08/20 07:16:32;;;;;;;;;;;;;;;27.01;100.00;96101.56;10539239;27;1933;-70
2023/08/20 07:21:38;;;;;;;;;;;;;;;27.11;100.00;96106.47;10562403;28;1993;-69
2023/08/20 07:26:41;;;;;;;;;;;;;;;27.04;100.00;96109.09;10549486;27;2028;-69
2023/08/20 07:31:44;;;;;;;;;;;;;;;27.45;100.00;96118.38;10554580;27;1972;-69
2023/08/20 07:36:50;;;;;;;;;;;;;;;27.56;100.00;96123.25;10542047;28;2022;-69
2023/08/20 07:41:55;;;;;;;;;;;;;;;28.07;96.42;96125.47;10558339;27;5250;-70
2023/08/20 07:47:00;;;;;;;;;;;;;;;27.91;99.67;96134.75;10563386;27;1980;-69
2023/08/20 07:52:04;;;;;;;;;;;;;;;28.33;99.60;96133.66;10559789;27;2280;-70
2023/08/20 07:57:07;;;;;;;;;;;;;;;28.48;99.42;96140.09;10527496;28;1759;-69
2023/08/20 08:02:13;;;;;;;;;;;;;;;28.63;97.51;96141.03;10542819;28;1531;-70
2023/08/20 08:07:16;;;;;;;;;;;;;;;29.06;95.75;96142.19;10559140;28;1914;-71
2023/08/20 08:12:19;;;;;;;;;;;;;;;28.78;94.48;96149.06;10564016;28;1535;-71
2023/08/20 08:17:21;;;;;;;;;;;;;;;28.72;90.71;96138.75;10565406;28;1456;-70
2023/08/20 08:22:24;;;;;;;;;;;;;;;29.04;88.35;96141.78;10561072;28;1630;-70
2023/08/20 08:27:28;;;;;;;;;;;;;;;29.02;89.13;96142.19;10579542;27;1910;-69
2023/08/20 08:32:31;;;;;;;;;;;;;;;28.98;87.65;96141.34;10558694;28;1645;-72
2023/08/20 08:37:35;;;;;;;;;;;;;;;29.19;89.29;96142.69;10549184;27;1549;-70
2023/08/20 08:42:38;;;;;;;;;;;;;;;29.18;89.77;96138.31;10570022;27;5112;-69
2023/08/20 08:47:43;;;;;;;;;;;;;;;29.14;92.57;96145.81;10565704;27;2301;-69
2023/08/20 08:52:46;;;;;;;;;;;;;;;29.27;86.55;96141.56;10569650;28;1412;-68
2023/08/20 08:57:52;;;;;;;;;;;;;;;28.68;91.67;96138.69;10568512;28;1659;-69
2023/08/20 09:02:56;;;;;;;;;;;;;;;28.88;90.48;96125.41;10566102;28;1515;-69
2023/08/20 09:07:59;;;;;;;;;;;;;;;29.20;90.94;96130.41;10550122;28;1949;-70
2023/08/20 09:13:02;;;;;;;;;;;;;;;28.86;91.21;96133.31;10566045;27;1486;-69
2023/08/20 09:18:05;;;;;;;;;;;;;;;29.13;87.96;96144.22;10572508;27;1460;-70
2023/08/20 09:23:11;;;;;;;;;;;;;;;29.76;84.12;96141.03;10566411;27;1587;-68
2023/08/20 09:28:17;;;;;;;;;;;;;;;29.94;83.86;96138.34;10549075;27;1909;-70
2023/08/20 09:33:20;;;;;;;;;;;;;;;30.21;81.27;96138.06;10572295;27;1540;-72
2023/08/20 09:38:24;;;;;;;;;;;;;;;29.55;82.59;96140.94;10571337;28;1551;-70
2023/08/20 09:43:29;;;;;;;;;;;;;;;29.89;78.67;96145.06;10567655;27;5171;-70
2023/08/20 09:48:32;;;;;;;;;;;;;;;29.90;66.85;96145.84;10548305;27;2349;-72
2023/08/20 09:53:36;;;;;;;;;;;;;;;29.69;69.94;96148.53;10573378;27;1603;-70
2023/08/20 09:58:39;;;;;;;;;;;;;;;30.09;76.00;96148.31;10573387;27;1908;-71
2023/08/20 10:03:43;;;;;;;;;;;;;;;30.23;76.32;96144.03;10572598;27;1467;-70
2023/08/20 10:08:46;;;;;;;;;;;;;;;30.32;70.08;96149.97;10552806;27;1910;-69
2023/08/20 10:13:57;;;;;;;;;;;;;;;30.15;72.38;96149.53;10566134;28;1536;-71
2023/08/20 10:19:04;;;;;;;;;;;;;;;30.21;71.21;96151.91;10571758;27;1748;-71
2023/08/20 10:24:10;;;;;;;;;;;;;;;30.30;69.93;96153.16;10585434;27;1457;-71
2023/08/20 10:29:15;;;;;;;;;;;;;;;30.46;65.15;96150.00;10563808;27;1946;-74
2023/08/20 10:34:22;;;;;;;;;;;;;;;30.27;69.18;96150.34;10549628;28;1496;-71
2023/08/20 10:39:26;;;;;;;;;;;;;;;30.80;69.44;96149.69;10567632;27;1458;-71
2023/08/20 10:44:32;;;;;;;;;;;;;;;30.75;68.84;96144.53;10570341;27;5133;-70
2023/08/20 10:49:47;;;;;;;;;;;;;;;30.43;71.34;96139.69;10568464;28;1965;-70
2023/08/20 10:54:53;;;;;;;;;;;;;;;30.32;73.42;96147.19;10549601;28;1698;-71
2023/08/20 10:59:59;;;;;;;;;;;;;;;30.48;70.29;96133.78;10547866;28;1582;-71
2023/08/20 11:05:03;;;;;;;;;;;;;;;30.89;68.57;96133.41;10567590;28;1966;-71
2023/08/20 11:10:06;;;;;;;;;;;;;;;30.78;68.85;96132.63;10564843;27;2035;-71
2023/08/20 11:15:10;;;;;;;;;;;;;;;30.46;64.26;96133.34;10551506;27;1981;-71
2023/08/20 11:20:14;;;;;;;;;;;;;;;30.23;69.75;96136.50;10563231;27;2022;-72
2023/08/20 11:25:19;;;;;;;;;;;;;;;30.38;68.90;96127.00;10593444;27;2044;-72
2023/08/20 11:30:24;;;;;;;;;;;;;;;30.37;58.69;96130.97;10553813;27;1918;-72
2023/08/20 11:35:28;;;;;;;;;;;;;;;30.51;59.90;96127.41;10568380;27;2021;-70
2023/08/20 11:40:32;;;;;;;;;;;;;;;30.68;60.79;96120.34;10569339;27;2237;-70
2023/08/20 11:45:36;;;;;;;;;;;;;;;30.62;62.46;96122.69;10583785;27;2046;-71
2023/08/20 11:50:40;;;;;;;;;;;;;;;30.20;64.74;96115.09;10578442;27;2080;-69
2023/08/20 11:55:48;;;;;;;;;;;;;;;30.28;61.85;96121.44;10570727;28;1958;-71
2023/08/20 12:00:53;;;;;;;;;;;;;;;30.32;62.53;96119.47;10574328;28;1921;-72
2023/08/20 12:06:03;;;;;;;;;;;;;;;30.64;63.74;96111.97;10564928;28;1982;-72
2023/08/20 12:11:17;;;;;;;;;;;;;;;31.26;59.37;96110.00;10588642;27;1972;-69
2023/08/20 12:16:20;;;;;;;;;;;;;;;31.39;55.10;96100.06;10552834;27;1986;-69
2023/08/20 12:21:24;;;;;;;;;;;;;;;31.51;54.07;96102.41;10551028;28;1962;-69
2023/08/20 12:26:26;;;;;;;;;;;;;;;31.65;50.44;96102.34;10577249;27;1940;-70
2023/08/20 12:31:30;;;;;;;;;;;;;;;31.72;49.04;96101.50;10576911;27;1931;-69
2023/08/20 12:36:34;;;;;;;;;;;;;;;31.67;52.12;96099.16;10569673;27;2225;-68
2023/08/20 12:41:38;;;;;;;;;;;;;;;31.95;51.18;96092.72;10576720;27;5147;-67
2023/08/20 12:46:43;;;;;;;;;;;;;;;31.81;51.12;96087.19;10578215;27;2142;-69
2023/08/20 12:52:02;;;;;;;;;;;;;;;31.88;47.50;96090.75;10563751;27;2032;-74
2023/08/20 12:57:09;;;;;;;;;;;;;;;31.93;45.14;96084.75;10560828;27;1938;-73
2023/08/20 13:02:18;;;;;;;;;;;;;;;32.06;46.67;96087.06;10549859;27;1960;-73
2023/08/20 13:07:27;;;;;;;;;;;;;;;31.91;49.18;96081.59;10563391;27;1993;-73
2023/08/20 13:12:34;;;;;;;;;;;;;;;32.16;48.55;96077.88;10558834;28;1923;-74
2023/08/20 13:17:39;;;;;;;;;;;;;;;32.21;50.10;96074.69;10566094;27;1919;-74
2023/08/20 13:22:44;;;;;;;;;;;;;;;32.41;49.94;96069.41;10564796;27;1962;-76
2023/08/20 13:27:49;;;;;;;;;;;;;;;32.29;52.27;96059.53;10546561;27;2006;-77
2023/08/20 13:32:52;;;;;;;;;;;;;;;32.27;53.89;96056.38;10547257;27;2334;-75
2023/08/20 13:37:57;;;;;;;;;;;;;;;32.57;49.77;96052.97;10560795;28;1898;-75
2023/08/20 13:43:03;;;;;;;;;;;;;;;32.54;50.17;96051.03;10562916;27;5244;-77
2023/08/20 13:48:07;;;;;;;;;;;;;;;32.54;53.02;96051.03;10564423;27;2012;-73
2023/08/20 13:53:11;;;;;;;;;;;;;;;32.56;53.32;96048.59;10564208;27;1955;-76
2023/08/20 13:58:16;;;;;;;;;;;;;;;32.25;54.76;96034.50;10565420;27;1963;-76
2023/08/20 14:03:20;;;;;;;;;;;;;;;32.33;53.65;96040.03;10543188;27;1952;-75
2023/08/20 14:08:23;;;;;;;;;;;;;;;32.34;52.82;96036.09;10564953;27;2013;-75
2023/08/20 14:13:28;;;;;;;;;;;;;;;32.36;49.69;96030.91;10547420;27;2032;-74
2023/08/20 14:18:34;;;;;;;;;;;;;;;32.45;50.31;96031.22;10558402;27;2002;-74
2023/08/20 14:23:40;;;;;;;;;;;;;;;32.37;54.11;96022.13;10565553;27;1939;-74
2023/08/20 14:28:51;;;;;;;;;;;;;;;32.52;56.25;96025.59;10567605;27;2388;-75
2023/08/20 14:33:54;;;;;;;;;;;;;;;32.49;56.03;96023.63;10541325;27;1951;-75
2023/08/20 14:38:57;;;;;;;;;;;;;;;32.41;55.43;96024.91;10566166;27;1951;-74
2023/08/20 14:44:01;;;;;;;;;;;;;;;32.67;56.89;96027.03;10566734;27;2031;-74
2023/08/20 14:49:05;;;;;;;;;;;;;;;32.53;59.96;96016.84;10554225;27;1949;-73
2023/08/20 14:54:11;;;;;;;;;;;;;;;32.45;60.37;96017.31;10558932;27;1971;-74
2023/08/20 14:59:16;;;;;;;;;;;;;;;32.52;58.19;96008.91;10557276;27;1922;-74
2023/08/20 15:04:24;;;;;;;;;;;;;;;32.37;57.49;96013.78;10544053;27;1961;-74
2023/08/20 15:09:33;;;;;;;;;;;;;;;32.59;54.51;96011.63;10541200;28;1969;-73
2023/08/20 15:14:36;;;;;;;;;;;;;;;32.57;55.03;96016.00;10529150;28;2066;-74
2023/08/20 15:19:44;;;;;;;;;;;;;;;32.19;54.46;96018.66;10538709;27;1935;-74
2023/08/20 15:24:50;;;;;;;;;;;;;;;32.35;52.87;96015.41;10542026;27;2245;-74
2023/08/20 15:29:57;;;;;;;;;;;;;;;32.36;54.21;96008.63;10560833;27;1973;-76
2023/08/20 15:35:01;;;;;;;;;;;;;;;32.19;53.91;96002.78;10554754;28;1938;-75
2023/08/20 15:40:09;;;;;;;;;;;;;;;32.08;53.85;96007.63;10559696;27;5048;-75
2023/08/20 15:45:16;;;;;;;;;;;;;;;32.00;53.85;96006.06;10549976;27;1984;-76
2023/08/20 15:50:21;;;;;;;;;;;;;;;31.86;51.63;96006.19;10548720;27;1973;-75
2023/08/20 15:55:26;;;;;;;;;;;;;;;31.66;55.20;95998.31;10553717;27;1963;-75
2023/08/20 16:00:35;;;;;;;;;;;;;;;31.57;56.65;96006.31;10541765;27;1934;-75
2023/08/20 16:05:38;;;;;;;;;;;;;;;31.42;56.14;96002.81;10526803;28;1981;-76
2023/08/20 16:10:48;;;;;;;;;;;;;;;31.41;54.86;95998.44;10537238;28;1987;-75
2023/08/20 16:15:53;;;;;;;;;;;;;;;31.33;54.06;95999.69;10554285;28;1959;-75
2023/08/20 16:21:03;;;;;;;;;;;;;;;31.27;55.12;95994.94;10547297;28;2308;-76
2023/08/20 16:26:08;;;;;;;;;;;;;;;31.30;54.35;96000.50;10554824;28;2500;-76
2023/08/20 16:31:13;;;;;;;;;;;;;;;31.20;55.66;95993.75;10550213;28;2059;-78
2023/08/20 16:36:18;;;;;;;;;;;;;;;31.01;58.49;96002.53;10560812;28;1982;-76
2023/08/20 16:41:28;;;;;;;;;;;;;;;30.91;58.86;95998.59;10573373;27;1978;-76
2023/08/20 16:46:32;;;;;;;;;;;;;;;30.78;58.55;95999.41;10554763;28;1977;-76
2023/08/20 16:51:36;;;;;;;;;;;;;;;30.71;59.47;95999.44;10540217;28;2022;-75
2023/08/20 16:56:39;;;;;;;;;;;;;;;30.57;60.27;96001.00;10560911;28;1954;-77
2023/08/20 17:01:46;;;;;;;;;;;;;;;30.48;63.48;95992.31;10561056;27;2070;-76
2023/08/20 17:06:52;;;;;;;;;;;;;;;30.38;66.84;95995.88;10560636;27;2273;-75
2023/08/20 17:11:56;;;;;;;;;;;;;;;30.24;68.05;95996.66;10562250;27;1969;-75
2023/08/20 17:17:03;;;;;;;;;;;;;;;30.17;73.26;96004.19;10559058;27;2433;-76
2023/08/20 17:22:08;;;;;;;;;;;;;;;29.95;79.00;96009.66;10566818;27;2025;-76
2023/08/20 17:27:13;;;;;;;;;;;;;;;29.77;86.87;96019.91;10584650;27;1961;-75
2023/08/20 17:32:19;;;;;;;;;;;;;;;29.52;92.30;96009.59;10564128;27;1977;-75
2023/08/20 17:37:22;;;;;;;;;;;;;;;29.36;96.35;96014.63;10562618;27;1922;-75
2023/08/20 17:42:29;;;;;;;;;;;;;;;29.16;99.07;96027.19;10568980;27;5025;-76
2023/08/20 17:47:44;;;;;;;;;;;;;;;28.92;100.00;96023.13;10564661;27;2129;-76
2023/08/20 17:52:51;;;;;;;;;;;;;;;28.77;100.00;96020.25;10563246;27;1982;-76
2023/08/20 17:57:55;;;;;;;;;;;;;;;28.51;100.00;96032.31;10583280;27;2048;-76
2023/08/20 18:03:06;;;;;;;;;;;;;;;28.29;100.00;96036.81;10568395;27;1836;-75
2023/08/20 18:08:11;;;;;;;;;;;;;;;28.10;100.00;96048.09;10557950;27;2049;-76
2023/08/20 18:13:22;;;;;;;;;;;;;;;27.89;100.00;96048.69;10562858;27;2276;-76
2023/08/20 18:18:25;;;;;;;;;;;;;;;27.67;100.00;96049.59;10566936;27;2012;-75
2023/08/20 18:23:30;;;;;;;;;;;;;;;27.53;100.00;96054.97;10560743;27;1929;-76
2023/08/20 18:28:34;;;;;;;;;;;;;;;27.36;100.00;96053.59;10584410;27;2014;-75
2023/08/20 18:33:46;;;;;;;;;;;;;;;27.18;100.00;96048.63;10563218;27;1992;-72
2023/08/20 18:38:49;;;;;;;;;;;;;;;26.99;100.00;96061.72;10564099;27;1958;-73
2023/08/20 18:43:54;;;;;;;;;;;;;;;26.84;100.00;96061.50;10568019;27;4871;-76
2023/08/20 18:48:59;;;;;;;;;;;;;;;26.66;100.00;96075.03;10555917;27;1974;-75
2023/08/20 18:54:07;;;;;;;;;;;;;;;26.59;100.00;96082.38;10556186;27;2248;-77
2023/08/20 18:59:12;;;;;;;;;;;;;;;26.39;100.00;96092.66;10545440;27;1980;-75
2023/08/20 19:04:15;;;;;;;;;;;;;;;26.20;100.00;96099.03;10569080;27;1978;-73
2023/08/20 19:09:17;;;;;;;;;;;;;;;26.14;100.00;96103.25;10561329;27;2244;-70
2023/08/20 19:14:22;;;;;;;;;;;;;;;26.03;100.00;96099.53;10558581;27;1946;-68
2023/08/20 19:19:28;;;;;;;;;;;;;;;26.02;100.00;96108.94;10556710;27;2134;-68
2023/08/20 19:24:32;;;;;;;;;;;;;;;25.89;100.00;96097.28;10557954;27;1978;-69
2023/08/20 19:29:35;;;;;;;;;;;;;;;25.66;100.00;96105.47;10541640;28;2038;-69
2023/08/20 19:34:38;;;;;;;;;;;;;;;25.63;100.00;96114.44;10554227;27;2005;-69
2023/08/20 19:39:42;;;;;;;;;;;;;;;25.56;100.00;96120.59;10544700;27;2144;-70
2023/08/20 19:44:49;;;;;;;;;;;;;;;25.55;100.00;96130.03;10545520;27;2053;-70
2023/08/20 19:49:53;;;;;;;;;;;;;;;25.49;100.00;96122.41;10548273;28;1958;-69
2023/08/20 19:54:58;;;;;;;;;;;;;;;25.42;100.00;96125.00;10552350;27;1991;-69
2023/08/20 20:00:03;;;;;;;;;;;;;;;25.34;100.00;96124.88;10535547;28;1934;-68
2023/08/20 20:05:09;;;;;;;;;;;;;;;25.24;100.00;96125.41;10557159;28;2247;-70
2023/08/20 20:10:12;;;;;;;;;;;;;;;25.11;100.00;96132.19;10571791;27;1989;-72
2023/08/20 20:15:14;;;;;;;;;;;;;;;25.03;100.00;96130.41;10535848;28;2519;-70
2023/08/20 20:20:19;;;;;;;;;;;;;;;24.88;100.00;96129.31;10532843;28;2040;-70
2023/08/20 20:25:24;;;;;;;;;;;;;;;24.76;100.00;96146.69;10555242;28;1964;-72
2023/08/20 20:30:28;;;;;;;;;;;;;;;24.65;100.00;96142.09;10557657;27;1976;-69
2023/08/20 20:35:33;;;;;;;;;;;;;;;24.51;100.00;96142.53;10562757;27;1982;-68
2023/08/20 20:40:36;;;;;;;;;;;;;;;24.40;100.00;96149.69;10562580;27;1969;-70
2023/08/20 20:45:42;;;;;;;;;;;;;;;24.36;100.00;96146.06;10551331;27;2025;-70
2023/08/20 20:50:46;;;;;;;;;;;;;;;24.28;100.00;96150.53;10566212;28;1905;-70
2023/08/20 20:55:49;;;;;;;;;;;;;;;24.24;100.00;96153.22;10554586;27;1831;-70
2023/08/20 21:00:53;;;;;;;;;;;;;;;24.20;100.00;96155.06;10568341;28;2382;-69
2023/08/20 21:05:57;;;;;;;;;;;;;;;24.27;100.00;96155.25;10567332;28;1478;-69
2023/08/20 21:11:04;;;;;;;;;;;;;;;24.14;100.00;96156.47;10565815;27;1902;-69
2023/08/20 21:16:10;;;;;;;;;;;;;;;24.04;100.00;96156.97;10568854;28;1487;-69
2023/08/20 21:21:16;;;;;;;;;;;;;;;23.96;100.00;96155.19;10551456;27;1491;-69
2023/08/20 21:26:19;;;;;;;;;;;;;;;23.92;100.00;96165.25;10567233;27;1615;-69
2023/08/20 21:31:24;;;;;;;;;;;;;;;23.84;100.00;96152.47;10570188;28;1902;-70
2023/08/20 21:36:27;;;;;;;;;;;;;;;23.79;100.00;96160.97;10568742;28;1738;-71
2023/08/20 21:41:33;;;;;;;;;;;;;;;23.68;100.00;96150.50;10570664;27;5339;-69
2023/08/20 21:46:36;;;;;;;;;;;;;;;23.62;100.00;96146.41;10546532;28;1482;-69
2023/08/20 21:51:46;;;;;;;;;;;;;;;23.60;100.00;96145.94;10570819;27;1909;-69
2023/08/20 21:56:50;;;;;;;;;;;;;;;23.55;100.00;96154.41;10551491;28;2235;-69
2023/08/20 22:01:54;;;;;;;;;;;;;;;23.44;100.00;96156.81;10543412;28;1679;-69
2023/08/20 22:06:58;;;;;;;;;;;;;;;23.47;100.00;96155.31;10567493;28;1611;-69
2023/08/20 22:12:02;;;;;;;;;;;;;;;23.43;100.00;96148.94;10564768;27;1918;-69
2023/08/20 22:17:05;;;;;;;;;;;;;;;23.33;100.00;96150.22;10563248;28;1511;-70
2023/08/20 22:22:09;;;;;;;;;;;;;;;23.23;100.00;96152.66;10544324;28;1495;-72
2023/08/20 22:27:12;;;;;;;;;;;;;;;23.12;100.00;96155.84;10525812;27;1487;-69
2023/08/20 22:32:15;;;;;;;;;;;;;;;23.05;100.00;96155.63;10568098;27;2011;-69
2023/08/20 22:37:19;;;;;;;;;;;;;;;22.86;100.00;96153.47;10568126;27;1507;-69
2023/08/20 22:42:22;;;;;;;;;;;;;;;22.83;100.00;96158.81;10551105;27;4950;-69
2023/08/20 22:52:43;;;;;;;;;;;;;;;22.73;100.00;96160.06;10556866;27;1951;-69
2023/08/20 22:57:46;;;;;;;;;;;;;;;22.60;100.00;96162.00;10561747;27;1922;-68
2023/08/20 23:02:54;;;;;;;;;;;;;;;22.46;100.00;96157.97;10550161;27;2157;-70
2023/08/20 23:08:00;;;;;;;;;;;;;;;22.41;100.00;96169.19;10551365;27;2004;-70
2023/08/20 23:13:05;;;;;;;;;;;;;;;22.36;100.00;96164.72;10557799;28;2058;-69
2023/08/20 23:18:07;;;;;;;;;;;;;;;22.43;100.00;96162.22;10555423;27;2059;-70
2023/08/20 23:23:12;;;;;;;;;;;;;;;22.40;100.00;96157.44;10533983;28;1982;-70
2023/08/20 23:28:16;;;;;;;;;;;;;;;22.35;100.00;96168.59;10541560;27;1962;-70
2023/08/20 23:33:19;;;;;;;;;;;;;;;22.15;100.00;96167.53;10552614;27;1976;-68
2023/08/20 23:38:23;;;;;;;;;;;;;;;22.07;100.00;96160.16;10554994;27;2299;-74
2023/08/20 23:43:29;;;;;;;;;;;;;;;22.12;100.00;96162.72;10548626;27;5212;-72
2023/08/20 23:48:34;;;;;;;;;;;;;;;22.25;100.00;96153.38;10551365;27;2225;-72
2023/08/20 23:53:38;;;;;;;;;;;;;;;22.32;100.00;96142.66;10556157;27;2101;-69
2023/08/20 23:58:41;;;;;;;;;;;;;;;22.26;100.00;96141.28;10558679;27;1985;-69
